Time;durP1;ratioP1;P1;durP2;ratioP2;P2;SDS_P1;SDS_P2;PMS_P1;PMS_P2;Temp;Humidity;BMP_temperature;BMP_pressure;BME280_temperature;BME280_humidity;BME280_pressure;Samples;Min_cycle;Max_cycle;Signal;HPM_P1;HPM_P2
2022/02/14 00:00:29;;;;;;;5.47;3.00;;;10.70;91.50;;;;;;5094039;28;20467;-68
2022/02/14 00:02:55;;;;;;;4.45;2.40;;;10.70;91.50;;;;;;5097181;28;20074;-68
2022/02/14 00:05:21;;;;;;;8.05;1.90;;;10.70;91.50;;;;;;5093225;28;20115;-69
2022/02/14 00:07:47;;;;;;;11.25;3.00;;;10.80;91.60;;;;;;5084137;28;20054;-69
2022/02/14 00:10:13;;;;;;;4.72;2.42;;;10.80;91.70;;;;;;5077744;28;20144;-69
2022/02/14 00:12:42;;;;;;;5.15;2.08;;;10.80;91.50;;;;;;5082883;28;20033;-69
2022/02/14 00:15:14;;;;;;;3.70;1.67;;;10.80;91.40;;;;;;5078020;28;20119;-68
2022/02/14 00:17:40;;;;;;;6.63;1.75;;;10.70;91.50;;;;;;5079952;28;20048;-68
2022/02/14 00:20:07;;;;;;;3.33;2.22;;;10.80;91.60;;;;;;5092734;28;20073;-68
2022/02/14 00:22:33;;;;;;;2.13;1.35;;;10.80;91.60;;;;;;5073884;28;20063;-68
2022/02/14 00:24:59;;;;;;;6.53;2.67;;;10.80;91.60;;;;;;5086946;28;20081;-69
2022/02/14 00:27:24;;;;;;;4.75;2.20;;;10.80;91.50;;;;;;5073682;28;20033;-69
2022/02/14 00:29:53;;;;;;;3.03;1.50;;;10.80;91.50;;;;;;5088709;28;20069;-68
2022/02/14 00:32:20;;;;;;;3.30;1.85;;;10.70;91.60;;;;;;5093218;28;20028;-69
2022/02/14 00:34:47;;;;;;;8.70;2.35;;;10.70;91.60;;;;;;5090622;28;20043;-68
2022/02/14 00:37:12;;;;;;;1.92;1.42;;;10.70;91.50;;;;;;5083257;28;20043;-68
2022/02/14 00:39:39;;;;;;;1.85;1.45;;;10.70;91.60;;;;;;5092934;28;20107;-69
2022/02/14 00:42:05;;;;;;;2.65;1.67;;;10.70;91.60;;;;;;5093736;28;20044;-68
2022/02/14 00:44:31;;;;;;;2.35;1.73;;;10.70;91.70;;;;;;5093337;28;20028;-68
2022/02/14 00:46:57;;;;;;;4.75;2.80;;;10.70;91.70;;;;;;5081915;28;20033;-67
2022/02/14 00:49:23;;;;;;;8.82;2.95;;;10.70;91.70;;;;;;5089850;28;20157;-67
2022/02/14 00:51:48;;;;;;;6.05;2.67;;;10.80;91.70;;;;;;5082289;28;20036;-68
2022/02/14 00:54:14;;;;;;;5.32;1.85;;;10.80;91.70;;;;;;5090351;28;20032;-68
2022/02/14 00:56:40;;;;;;;3.13;1.92;;;10.70;91.70;;;;;;5081725;28;20036;-67
2022/02/14 00:59:05;;;;;;;6.32;2.95;;;10.80;91.80;;;;;;5085999;28;20546;-67
2022/02/14 01:01:31;;;;;;;2.88;1.77;;;10.80;91.70;;;;;;5085178;28;20074;-67
2022/02/14 01:03:57;;;;;;;4.07;1.60;;;10.80;91.70;;;;;;5078500;28;20043;-68
2022/02/14 01:06:26;;;;;;;6.50;2.40;;;10.80;91.80;;;;;;5093164;28;20127;-68
2022/02/14 01:08:52;;;;;;;9.05;2.17;;;10.80;91.80;;;;;;5092056;28;20035;-68
2022/02/14 01:11:22;;;;;;;5.03;2.17;;;10.80;91.80;;;;;;5093140;28;20032;-68
2022/02/14 01:13:47;;;;;;;3.92;2.05;;;10.80;91.70;;;;;;5088328;28;20468;-68
2022/02/14 01:16:16;;;;;;;4.97;2.35;;;10.90;91.80;;;;;;5092640;28;20024;-69
2022/02/14 01:18:41;;;;;;;3.40;1.80;;;10.90;91.80;;;;;;5092653;28;20036;-67
2022/02/14 01:21:07;;;;;;;4.03;1.88;;;10.90;91.80;;;;;;5088119;28;20024;-68
2022/02/14 01:23:32;;;;;;;2.58;1.83;;;10.90;91.70;;;;;;5090409;28;20034;-68
2022/02/14 01:25:58;;;;;;;8.93;1.98;;;10.90;91.90;;;;;;5086759;28;20459;-68
2022/02/14 01:28:24;;;;;;;4.15;1.98;;;10.90;91.80;;;;;;5091856;28;20028;-67
2022/02/14 01:30:49;;;;;;;4.90;2.13;;;11.00;91.80;;;;;;5092633;28;20463;-68
2022/02/14 01:33:15;;;;;;;4.40;2.45;;;10.90;91.80;;;;;;5092749;28;20429;-68
2022/02/14 01:35:41;;;;;;;3.58;2.03;;;11.00;91.80;;;;;;5078618;28;20496;-67
2022/02/14 01:38:06;;;;;;;4.32;1.58;;;11.00;91.90;;;;;;5076881;28;20052;-68
2022/02/14 01:40:32;;;;;;;4.43;2.42;;;11.00;91.90;;;;;;5092803;28;20117;-68
2022/02/14 01:42:58;;;;;;;6.70;2.05;;;11.00;92.00;;;;;;5088084;28;20071;-68
2022/02/14 01:45:24;;;;;;;6.50;2.10;;;11.00;91.90;;;;;;5082895;28;20035;-68
2022/02/14 01:47:50;;;;;;;4.97;1.73;;;11.00;91.90;;;;;;5092355;28;20054;-68
2022/02/14 01:50:16;;;;;;;7.50;2.80;;;11.10;92.00;;;;;;5091711;28;20138;-68
2022/02/14 01:52:43;;;;;;;8.15;2.08;;;11.00;91.90;;;;;;5074423;28;20031;-68
2022/02/14 01:55:11;;;;;;;4.50;2.17;;;11.00;91.80;;;;;;5083691;28;20483;-68
2022/02/14 01:57:38;;;;;;;5.03;2.20;;;11.10;91.90;;;;;;5091730;28;20056;-68
2022/02/14 02:00:12;;;;;;;4.53;2.35;;;11.00;91.90;;;;;;5088320;28;20114;-68
2022/02/14 02:02:38;;;;;;;4.32;2.08;;;11.10;91.90;;;;;;5084000;28;20131;-68
2022/02/14 02:05:05;;;;;;;2.88;1.77;;;11.10;91.90;;;;;;5091787;28;20095;-68
2022/02/14 02:07:32;;;;;;;5.22;1.98;;;11.10;91.90;;;;;;5080017;28;20046;-68
2022/02/14 02:09:57;;;;;;;2.60;1.33;;;11.10;91.90;;;;;;5085368;28;20028;-68
2022/02/14 02:12:26;;;;;;;7.93;2.70;;;11.10;91.90;;;;;;5084518;28;20039;-68
2022/02/14 02:14:57;;;;;;;5.22;2.35;;;11.10;91.90;;;;;;5091565;28;20468;-68
2022/02/14 02:17:27;;;;;;;2.80;1.58;;;11.10;91.80;;;;;;5090694;28;20044;-68
2022/02/14 02:19:52;;;;;;;3.08;1.80;;;11.20;91.90;;;;;;5092419;28;20036;-67
2022/02/14 02:22:19;;;;;;;4.47;2.08;;;11.10;91.80;;;;;;5092096;28;20036;-67
2022/02/14 02:24:51;;;;;;;3.40;1.88;;;11.10;91.70;;;;;;5091581;28;20032;-68
2022/02/14 02:27:18;;;;;;;4.20;2.50;;;11.10;91.90;;;;;;5088412;28;20037;-68
2022/02/14 02:29:44;;;;;;;4.20;1.60;;;11.10;91.80;;;;;;5082498;28;20020;-68
2022/02/14 02:32:12;;;;;;;3.15;1.80;;;11.20;91.90;;;;;;5090023;28;20036;-68
2022/02/14 02:34:40;;;;;;;3.95;2.38;;;11.10;91.80;;;;;;5079518;28;20041;-68
2022/02/14 02:37:09;;;;;;;3.65;1.70;;;11.10;91.90;;;;;;5091955;28;20102;-68
2022/02/14 02:39:36;;;;;;;4.93;1.63;;;11.20;91.80;;;;;;5093625;28;20426;-68
2022/02/14 02:42:06;;;;;;;3.63;2.30;;;11.10;91.80;;;;;;5095879;28;20069;-68
2022/02/14 02:44:33;;;;;;;7.63;2.92;;;11.10;91.80;;;;;;5086097;28;20039;-68
2022/02/14 02:47:07;;;;;;;23.73;2.17;;;11.20;91.80;;;;;;5088087;28;20353;-68
2022/02/14 02:49:33;;;;;;;3.70;2.40;;;11.20;91.90;;;;;;5087056;28;20056;-67
2022/02/14 02:52:00;;;;;;;6.32;2.30;;;11.20;91.80;;;;;;5095363;28;20457;-67
2022/02/14 02:54:27;;;;;;;2.13;1.65;;;11.20;91.80;;;;;;5095215;28;20032;-67
2022/02/14 02:56:54;;;;;;;5.60;2.58;;;11.30;91.80;;;;;;5082045;28;20446;-68
2022/02/14 02:59:21;;;;;;;5.05;1.83;;;11.30;91.80;;;;;;5095019;28;20055;-68
2022/02/14 03:01:47;;;;;;;6.63;3.10;;;11.20;91.60;;;;;;5095354;28;20044;-67
2022/02/14 03:04:14;;;;;;;8.65;2.50;;;11.30;91.60;;;;;;5095069;28;20463;-67
2022/02/14 03:06:41;;;;;;;7.88;2.63;;;11.30;91.60;;;;;;5081593;28;20043;-67
2022/02/14 03:09:10;;;;;;;4.07;2.00;;;11.30;91.60;;;;;;5094423;28;20028;-68
2022/02/14 03:11:37;;;;;;;3.10;1.52;;;11.30;91.70;;;;;;5082940;28;20039;-68
2022/02/14 03:14:04;;;;;;;3.92;1.63;;;11.30;91.70;;;;;;5080795;28;20107;-68
2022/02/14 03:16:30;;;;;;;5.13;2.60;;;11.30;91.70;;;;;;5087093;28;20043;-68
2022/02/14 03:18:56;;;;;;;2.85;1.45;;;11.30;91.60;;;;;;5089764;28;20028;-68
2022/02/14 03:21:24;;;;;;;3.10;1.65;;;11.30;91.70;;;;;;5094179;28;20035;-68
2022/02/14 03:23:52;;;;;;;9.32;2.95;;;11.30;91.70;;;;;;5084156;28;20028;-68
2022/02/14 03:26:19;;;;;;;6.50;2.35;;;11.30;91.50;;;;;;5095162;28;20032;-67
2022/02/14 03:28:47;;;;;;;9.40;2.13;;;11.30;91.60;;;;;;5094125;28;20097;-68
2022/02/14 03:31:14;;;;;;;3.70;1.88;;;11.40;91.70;;;;;;5094690;28;20082;-68
2022/02/14 03:33:40;;;;;;;6.82;2.53;;;11.40;91.70;;;;;;5094889;28;20040;-68
2022/02/14 03:36:06;;;;;;;2.67;1.27;;;11.30;91.50;;;;;;5094029;28;20062;-68
2022/02/14 03:38:32;;;;;;;3.78;1.35;;;11.40;91.70;;;;;;5095001;28;20040;-68
2022/02/14 03:40:58;;;;;;;5.35;2.42;;;11.40;91.70;;;;;;5088317;28;20037;-67
2022/02/14 03:43:24;;;;;;;4.78;1.95;;;11.40;91.70;;;;;;5073786;28;20043;-67
2022/02/14 03:45:49;;;;;;;3.95;2.03;;;11.40;91.60;;;;;;5080770;28;20107;-68
2022/02/14 03:48:15;;;;;;;5.63;1.88;;;11.40;91.70;;;;;;5094433;28;20391;-67
2022/02/14 03:50:41;;;;;;;2.28;1.65;;;11.30;91.60;;;;;;5079044;28;20027;-68
2022/02/14 03:53:07;;;;;;;3.70;1.73;;;11.30;91.60;;;;;;5106911;28;20039;-68
2022/02/14 03:55:33;;;;;;;2.35;1.67;;;11.30;91.70;;;;;;5100951;28;20077;-67
2022/02/14 03:57:59;;;;;;;1.33;0.77;;;11.30;91.70;;;;;;5094070;28;20530;-68
2022/02/14 04:00:25;;;;;;;3.65;1.70;;;11.30;91.80;;;;;;5098035;28;20048;-68
2022/02/14 04:02:52;;;;;;;2.40;1.27;;;11.30;91.70;;;;;;5085024;28;20043;-68
2022/02/14 04:05:18;;;;;;;8.20;2.42;;;11.30;91.70;;;;;;5093503;28;20042;-68
2022/02/14 04:07:45;;;;;;;3.72;1.65;;;11.30;91.70;;;;;;5088597;28;20067;-67
2022/02/14 04:10:14;;;;;;;3.78;1.25;;;11.30;91.70;;;;;;5094183;28;20463;-68
2022/02/14 04:12:40;;;;;;;6.78;2.38;;;11.30;91.80;;;;;;5094181;28;20036;-68
2022/02/14 04:15:08;;;;;;;2.05;1.25;;;11.30;91.80;;;;;;5093920;28;20083;-67
2022/02/14 04:17:34;;;;;;;2.33;1.75;;;11.30;91.90;;;;;;5092557;28;20042;-68
2022/02/14 04:20:01;;;;;;;5.78;1.63;;;11.30;91.90;;;;;;5094077;28;20020;-67
2022/02/14 04:22:26;;;;;;;4.20;2.10;;;11.20;91.90;;;;;;5093604;28;20051;-68
2022/02/14 04:24:52;;;;;;;4.88;2.20;;;11.20;91.90;;;;;;5097301;28;20023;-68
2022/02/14 04:27:18;;;;;;;2.90;1.50;;;11.20;91.90;;;;;;5097365;28;20024;-68
2022/02/14 04:29:44;;;;;;;5.10;1.75;;;11.20;91.90;;;;;;5080320;28;20016;-67
2022/02/14 04:32:10;;;;;;;2.58;1.35;;;11.20;91.90;;;;;;5092843;28;20028;-67
2022/02/14 04:34:36;;;;;;;6.25;2.13;;;11.20;92.00;;;;;;5093773;28;20021;-67
2022/02/14 04:37:05;;;;;;;2.20;1.30;;;11.20;91.90;;;;;;5093620;28;20039;-68
2022/02/14 04:39:30;;;;;;;3.33;2.03;;;11.20;91.90;;;;;;5091840;28;20396;-68
2022/02/14 04:41:56;;;;;;;1.92;1.50;;;11.20;91.90;;;;;;5093445;28;20123;-68
2022/02/14 04:44:22;;;;;;;7.18;2.03;;;11.20;92.00;;;;;;5093725;28;20102;-67
2022/02/14 04:46:48;;;;;;;2.42;1.67;;;11.20;91.90;;;;;;5092411;28;20032;-67
2022/02/14 04:49:15;;;;;;;7.18;2.60;;;11.20;92.00;;;;;;5093555;28;20394;-68
2022/02/14 04:51:41;;;;;;;2.97;1.55;;;11.20;92.00;;;;;;5078821;28;20515;-67
2022/02/14 04:54:07;;;;;;;4.38;2.13;;;11.20;92.00;;;;;;5092771;28;20386;-67
2022/02/14 04:56:33;;;;;;;3.53;1.60;;;11.10;92.00;;;;;;5093221;28;20020;-67
2022/02/14 04:58:59;;;;;;;6.30;1.77;;;11.20;92.00;;;;;;5096213;28;20094;-67
2022/02/14 05:01:25;;;;;;;3.00;2.15;;;11.10;92.00;;;;;;5092541;28;20027;-67
2022/02/14 05:03:51;;;;;;;2.22;1.30;;;11.10;92.00;;;;;;5083547;28;20024;-68
2022/02/14 05:06:18;;;;;;;3.05;1.75;;;11.20;92.00;;;;;;5092193;28;20057;-68
2022/02/14 05:08:43;;;;;;;2.80;1.42;;;11.10;92.00;;;;;;5093114;28;20042;-68
2022/02/14 05:11:10;;;;;;;8.07;2.20;;;11.20;92.00;;;;;;5088254;28;20032;-67
2022/02/14 05:13:39;;;;;;;3.53;1.75;;;11.10;92.00;;;;;;5087361;28;20066;-67
2022/02/14 05:16:08;;;;;;;3.25;1.80;;;11.20;92.20;;;;;;5092842;28;20031;-68
2022/02/14 05:18:34;;;;;;;5.25;1.98;;;11.20;92.20;;;;;;5092921;28;20540;-68
2022/02/14 05:21:00;;;;;;;2.15;1.20;;;11.20;92.20;;;;;;5091851;28;20032;-68
2022/02/14 05:23:26;;;;;;;3.63;1.67;;;11.20;92.20;;;;;;5092985;28;20126;-68
2022/02/14 05:25:51;;;;;;;3.67;1.98;;;11.20;92.20;;;;;;5085822;28;20495;-68
2022/02/14 05:28:17;;;;;;;2.80;1.65;;;11.20;92.20;;;;;;5085212;28;20031;-67
2022/02/14 05:30:43;;;;;;;6.80;2.13;;;11.20;92.10;;;;;;5090811;28;20028;-68
2022/02/14 05:33:12;;;;;;;2.75;1.27;;;11.30;92.10;;;;;;5085238;28;20475;-67
2022/02/14 05:35:37;;;;;;;5.63;1.33;;;11.20;92.10;;;;;;5086572;28;20024;-68
2022/02/14 05:38:03;;;;;;;2.92;1.50;;;11.30;92.20;;;;;;5092684;28;20382;-68
2022/02/14 05:40:29;;;;;;;4.28;1.63;;;11.20;92.20;;;;;;5092444;28;20024;-68
2022/02/14 05:42:55;;;;;;;5.63;1.98;;;11.20;92.20;;;;;;5091785;28;20043;-68
2022/02/14 05:45:21;;;;;;;5.25;1.02;;;11.20;92.10;;;;;;5079070;28;20028;-68
2022/02/14 05:47:46;;;;;;;9.15;1.75;;;11.30;92.10;;;;;;5091574;28;20475;-68
2022/02/14 05:50:12;;;;;;;3.70;1.23;;;11.30;92.20;;;;;;5091724;28;20036;-67
2022/02/14 05:52:39;;;;;;;2.45;1.60;;;11.20;92.20;;;;;;5092386;28;20024;-68
2022/02/14 05:55:08;;;;;;;12.40;2.42;;;11.20;92.20;;;;;;5092692;28;20032;-67
2022/02/14 05:57:37;;;;;;;3.57;2.17;;;11.30;92.20;;;;;;5079151;28;20024;-69
2022/02/14 06:00:05;;;;;;;1.55;1.10;;;11.30;92.20;;;;;;5092622;28;20482;-68
2022/02/14 06:02:31;;;;;;;4.53;1.80;;;11.30;92.20;;;;;;5072245;28;20040;-69
2022/02/14 06:04:57;;;;;;;2.92;1.95;;;11.20;92.30;;;;;;5085067;28;20372;-68
2022/02/14 06:07:22;;;;;;;3.60;2.13;;;11.30;92.30;;;;;;5091433;28;20028;-80
2022/02/14 06:09:48;;;;;;;3.55;1.42;;;11.30;92.40;;;;;;5091465;28;20050;-69
2022/02/14 06:12:13;;;;;;;4.88;1.95;;;11.20;92.30;;;;;;5091399;28;20020;-68
2022/02/14 06:14:39;;;;;;;5.18;2.38;;;11.20;92.30;;;;;;5094739;28;20816;-67
2022/02/14 06:17:05;;;;;;;2.72;2.05;;;11.30;92.30;;;;;;5094070;28;20035;-73
2022/02/14 06:19:31;;;;;;;5.50;1.02;;;11.30;92.30;;;;;;5094157;28;20043;-68
2022/02/14 06:21:56;;;;;;;3.00;1.98;;;11.30;92.30;;;;;;5091653;28;20063;-67
2022/02/14 06:24:22;;;;;;;6.90;2.20;;;11.30;92.30;;;;;;5085447;28;20028;-67
2022/02/14 06:26:48;;;;;;;2.47;1.17;;;11.30;92.30;;;;;;5095279;28;20027;-66
2022/02/14 06:29:13;;;;;;;3.30;1.60;;;11.30;92.30;;;;;;5095326;28;20484;-68
2022/02/14 06:31:39;;;;;;;3.88;1.20;;;11.30;92.40;;;;;;5094811;28;20475;-67
2022/02/14 06:34:05;;;;;;;2.10;1.80;;;11.30;92.40;;;;;;5096164;28;20024;-67
2022/02/14 06:36:31;;;;;;;2.60;1.55;;;11.30;92.40;;;;;;5095356;28;20043;-71
2022/02/14 06:38:59;;;;;;;2.10;1.30;;;11.40;92.40;;;;;;5092360;28;20032;-69
2022/02/14 06:41:27;;;;;;;7.13;1.63;;;11.30;92.30;;;;;;5093062;28;20468;-68
2022/02/14 06:43:54;;;;;;;1.85;1.65;;;11.30;92.40;;;;;;5095463;28;20427;-71
2022/02/14 06:46:20;;;;;;;4.70;1.75;;;11.40;92.30;;;;;;5089065;28;20020;-67
2022/02/14 06:48:46;;;;;;;7.15;1.55;;;11.40;92.40;;;;;;5092955;28;20423;-67
2022/02/14 06:51:12;;;;;;;3.90;1.85;;;11.40;92.30;;;;;;5075526;28;20036;-68
2022/02/14 06:53:38;;;;;;;2.67;1.60;;;11.40;92.40;;;;;;5074691;28;20179;-68
2022/02/14 06:56:07;;;;;;;5.18;2.13;;;11.40;92.40;;;;;;5092836;28;20032;-67
2022/02/14 06:58:37;;;;;;;4.25;1.52;;;11.40;92.40;;;;;;5091174;28;20028;-67
2022/02/14 07:01:04;;;;;;;3.28;1.55;;;11.40;92.30;;;;;;5092272;28;20047;-67
2022/02/14 07:03:30;;;;;;;2.10;1.20;;;11.40;92.30;;;;;;5087973;28;20044;-67
2022/02/14 07:05:57;;;;;;;2.13;1.23;;;11.40;92.40;;;;;;5093199;28;20028;-66
2022/02/14 07:08:24;;;;;;;2.72;1.05;;;11.50;92.40;;;;;;5094815;28;20123;-67
2022/02/14 07:10:49;;;;;;;2.58;1.55;;;11.40;92.40;;;;;;5094332;28;20107;-68
2022/02/14 07:13:15;;;;;;;2.60;1.27;;;11.40;92.40;;;;;;5089655;28;20425;-68
2022/02/14 07:15:41;;;;;;;7.65;1.48;;;11.50;92.40;;;;;;5090022;28;20036;-67
2022/02/14 07:18:13;;;;;;;2.88;1.38;;;11.50;92.40;;;;;;5088630;28;20069;-68
2022/02/14 07:20:40;;;;;;;6.00;2.00;;;11.50;92.40;;;;;;5091400;28;20093;-68
2022/02/14 07:23:06;;;;;;;1.77;1.00;;;11.50;92.40;;;;;;5093572;28;20036;-67
2022/02/14 07:25:32;;;;;;;5.47;1.55;;;11.50;92.40;;;;;;5095214;28;20016;-67
2022/02/14 07:27:57;;;;;;;5.15;1.42;;;11.50;92.40;;;;;;5094318;28;20183;-67
2022/02/14 07:30:23;;;;;;;3.35;1.50;;;11.50;92.40;;;;;;5092554;28;20044;-67
2022/02/14 07:32:52;;;;;;;2.55;1.35;;;11.50;92.40;;;;;;5094756;28;20032;-67
2022/02/14 07:35:18;;;;;;;2.97;1.52;;;11.50;92.40;;;;;;5094310;28;20051;-67
2022/02/14 07:37:44;;;;;;;2.30;1.38;;;11.50;92.40;;;;;;5088362;28;20029;-68
2022/02/14 07:40:14;;;;;;;3.75;1.10;;;11.50;92.30;;;;;;5087995;28;20036;-65
2022/02/14 07:42:44;;;;;;;1.83;1.08;;;11.60;92.40;;;;;;5081644;28;20040;-67
2022/02/14 07:45:11;;;;;;;1.70;1.30;;;11.60;92.50;;;;;;5093847;28;20028;-67
2022/02/14 07:47:37;;;;;;;1.38;1.27;;;11.60;92.50;;;;;;5087565;28;20040;-67
2022/02/14 07:50:06;;;;;;;2.58;1.38;;;11.60;92.50;;;;;;5088416;28;20394;-67
2022/02/14 07:52:35;;;;;;;3.60;1.05;;;11.60;92.50;;;;;;5094741;28;20051;-67
2022/02/14 07:55:03;;;;;;;7.18;1.90;;;11.60;92.50;;;;;;5093707;28;20818;-67
2022/02/14 07:57:29;;;;;;;2.33;1.50;;;11.60;92.40;;;;;;5094577;28;20085;-67
2022/02/14 07:59:56;;;;;;;2.40;1.30;;;11.50;92.50;;;;;;5100912;28;20051;-67
2022/02/14 08:02:21;;;;;;;3.63;1.83;;;11.50;92.50;;;;;;5093977;28;20139;-67
2022/02/14 08:04:47;;;;;;;2.95;1.60;;;11.50;92.50;;;;;;5094084;28;20063;-66
2022/02/14 08:07:14;;;;;;;1.02;0.93;;;11.60;92.50;;;;;;5094394;28;20479;-70
2022/02/14 08:09:39;;;;;;;3.13;1.90;;;11.60;92.60;;;;;;5079083;28;20034;-70
2022/02/14 08:12:08;;;;;;;4.35;1.40;;;11.60;92.60;;;;;;5094263;28;20028;-70
2022/02/14 08:14:34;;;;;;;1.65;1.23;;;11.60;92.70;;;;;;5094027;28;20047;-69
2022/02/14 08:17:01;;;;;;;2.17;1.40;;;11.60;92.70;;;;;;5093448;28;20043;-67
2022/02/14 08:19:29;;;;;;;4.60;1.27;;;11.60;92.70;;;;;;5093893;28;20123;-69
2022/02/14 08:21:56;;;;;;;2.47;1.55;;;11.60;92.70;;;;;;5093973;28;20047;-67
2022/02/14 08:24:22;;;;;;;3.28;1.17;;;11.70;92.70;;;;;;5093313;28;20471;-68
2022/02/14 08:26:48;;;;;;;3.90;1.58;;;11.70;92.70;;;;;;5080265;28;20071;-68
2022/02/14 08:29:13;;;;;;;3.50;1.55;;;11.70;92.70;;;;;;5092073;28;20379;-68
2022/02/14 08:31:39;;;;;;;4.10;1.40;;;11.70;92.70;;;;;;5092979;28;20028;-68
2022/02/14 08:34:05;;;;;;;1.25;1.13;;;11.70;92.60;;;;;;5093811;28;20020;-67
2022/02/14 08:36:31;;;;;;;4.32;1.63;;;11.70;93.00;;;;;;5093272;28;20028;-67
2022/02/14 08:38:57;;;;;;;1.40;0.77;;;11.80;93.00;;;;;;5092798;28;20027;-68
2022/02/14 08:41:26;;;;;;;2.45;1.30;;;11.80;92.60;;;;;;5093615;28;20535;-68
2022/02/14 08:43:52;;;;;;;2.45;1.13;;;11.80;92.60;;;;;;5083478;28;20081;-67
2022/02/14 08:46:20;;;;;;;1.45;1.35;;;11.80;92.50;;;;;;5089209;28;20086;-67
2022/02/14 08:48:52;;;;;;;6.13;1.55;;;11.80;92.50;;;;;;5090048;28;20028;-67
2022/02/14 08:51:18;;;;;;;1.60;1.10;;;11.80;92.60;;;;;;5091975;28;20024;-67
2022/02/14 08:53:45;;;;;;;1.70;1.38;;;11.80;92.50;;;;;;5091981;28;20054;-68
2022/02/14 08:56:11;;;;;;;4.30;1.48;;;11.80;92.50;;;;;;5091545;28;20047;-68
2022/02/14 08:58:40;;;;;;;5.72;2.05;;;11.70;92.60;;;;;;5089266;28;20028;-67
2022/02/14 09:01:06;;;;;;;4.00;1.90;;;11.80;92.60;;;;;;5091190;28;20492;-67
2022/02/14 09:03:33;;;;;;;3.65;1.90;;;11.80;92.60;;;;;;5080551;28;20044;-67
2022/02/14 09:05:58;;;;;;;5.20;2.05;;;11.70;92.70;;;;;;5078770;28;20056;-67
2022/02/14 09:08:25;;;;;;;5.53;2.58;;;11.60;92.80;;;;;;5088391;28;20020;-67
2022/02/14 09:10:59;;;;;;;3.08;1.60;;;11.60;93.00;;;;;;5091275;28;20034;-67
2022/02/14 09:13:31;;;;;;;3.80;2.08;;;11.50;93.00;;;;;;5088191;28;20073;-67
2022/02/14 09:15:57;;;;;;;5.78;2.20;;;11.50;93.20;;;;;;5074278;28;20042;-67
2022/02/14 09:18:22;;;;;;;5.15;2.30;;;11.40;93.30;;;;;;5092479;28;20092;-67
2022/02/14 09:20:48;;;;;;;5.25;2.20;;;11.40;93.60;;;;;;5078225;28;20467;-67
2022/02/14 09:23:19;;;;;;;7.15;2.25;;;11.40;94.00;;;;;;5092515;28;20036;-67
2022/02/14 09:25:45;;;;;;;4.75;2.50;;;11.30;94.10;;;;;;5072630;28;20031;-67
2022/02/14 09:28:13;;;;;;;4.93;2.17;;;11.40;94.40;;;;;;5073669;28;20044;-67
2022/02/14 09:30:39;;;;;;;4.95;2.15;;;11.30;94.60;;;;;;5087672;28;20106;-68
2022/02/14 09:33:05;;;;;;;4.35;1.73;;;11.30;94.80;;;;;;5092399;28;20060;-67
2022/02/14 09:35:30;;;;;;;4.18;1.70;;;11.30;95.00;;;;;;5091956;28;20028;-67
2022/02/14 09:38:01;;;;;;;6.05;2.05;;;11.30;95.10;;;;;;5079039;28;20115;-67
2022/02/14 09:40:29;;;;;;;3.38;1.80;;;11.30;95.20;;;;;;5089097;28;20032;-68
2022/02/14 09:42:58;;;;;;;4.20;2.25;;;11.20;95.10;;;;;;5091312;28;20446;-69
2022/02/14 09:45:25;;;;;;;3.08;1.98;;;11.30;95.30;;;;;;5091109;28;20060;-68
2022/02/14 09:48:00;;;;;;;2.85;1.80;;;11.30;95.30;;;;;;5090029;28;20032;-70
2022/02/14 09:50:28;;;;;;;3.85;1.85;;;11.30;95.30;;;;;;5089713;28;20028;-67
2022/02/14 09:52:54;;;;;;;3.75;1.55;;;11.30;95.30;;;;;;5079298;28;20068;-67
2022/02/14 09:55:23;;;;;;;4.03;1.85;;;11.30;95.30;;;;;;5071970;28;20104;-67
2022/02/14 09:57:49;;;;;;;4.53;1.80;;;11.30;95.40;;;;;;5086114;28;20111;-68
2022/02/14 10:00:15;;;;;;;1.98;1.20;;;11.30;95.40;;;;;;5094210;28;20109;-69
2022/02/14 10:02:41;;;;;;;1.50;1.40;;;11.40;95.40;;;;;;5091636;28;20047;-67
2022/02/14 10:05:13;;;;;;;3.83;1.90;;;11.40;95.70;;;;;;5092301;28;20394;-67
2022/02/14 10:07:43;;;;;;;1.73;1.23;;;11.50;95.40;;;;;;5092175;28;20087;-67
2022/02/14 10:10:18;;;;;;;4.15;1.48;;;11.50;95.40;;;;;;5091862;28;20031;-67
2022/02/14 10:12:49;;;;;;;3.72;1.90;;;11.50;95.40;;;;;;5088785;28;20060;-68
2022/02/14 10:15:16;;;;;;;2.13;1.13;;;11.50;95.40;;;;;;5092161;28;20032;-68
2022/02/14 10:17:45;;;;;;;5.55;1.80;;;11.50;95.30;;;;;;5084539;28;20107;-67
2022/02/14 10:20:15;;;;;;;3.50;1.40;;;11.60;95.30;;;;;;5086084;28;20032;-67
2022/02/14 10:23:03;;;;;;;1.88;1.20;;;11.50;95.20;;;;;;5091419;28;20506;-68
2022/02/14 10:25:33;;;;;;;1.23;1.02;;;11.60;95.30;;;;;;5091921;28;20063;-67
2022/02/14 10:28:20;;;;;;;4.80;1.30;;;11.50;95.30;;;;;;5091976;28;20050;-68
2022/02/14 10:31:02;;;;;;;2.60;1.33;;;11.50;95.30;;;;;;5084301;28;20396;-69
2022/02/14 10:33:51;;;;;;;3.42;1.30;;;11.60;95.30;;;;;;5092365;28;20043;-68
2022/02/14 10:36:32;;;;;;;3.03;1.23;;;11.60;95.30;;;;;;5080046;28;20109;-69
2022/02/14 10:39:07;;;;;;;4.18;1.60;;;11.50;95.50;;;;;;5088098;28;20557;-68
2022/02/14 10:41:33;;;;;;;3.92;1.20;;;11.50;95.30;;;;;;5083829;28;20052;-68
2022/02/14 10:44:09;;;;;;;5.68;1.23;;;11.50;95.30;;;;;;5084456;28;20048;-68
2022/02/14 10:46:35;;;;;;;3.28;1.70;;;11.50;95.30;;;;;;5081015;28;20031;-68
2022/02/14 10:49:02;;;;;;;4.35;1.92;;;11.50;95.20;;;;;;5091851;28;20460;-68
2022/02/14 10:51:28;;;;;;;5.18;1.70;;;11.50;95.30;;;;;;5090526;28;20161;-68
2022/02/14 10:53:55;;;;;;;2.55;1.60;;;11.50;95.30;;;;;;5091034;28;20392;-68
2022/02/14 10:56:22;;;;;;;2.70;1.45;;;11.50;95.20;;;;;;5092658;28;20024;-67
2022/02/14 10:58:49;;;;;;;4.97;1.40;;;11.50;95.30;;;;;;5078745;28;20118;-66
2022/02/14 11:01:16;;;;;;;1.95;0.95;;;11.50;95.30;;;;;;5103280;28;20548;-68
2022/02/14 11:03:44;;;;;;;3.65;1.30;;;11.50;95.30;;;;;;5095309;28;20387;-67
2022/02/14 11:06:12;;;;;;;6.70;1.27;;;11.60;95.30;;;;;;5093915;28;20464;-71
2022/02/14 11:08:39;;;;;;;2.33;1.23;;;11.60;95.20;;;;;;5074816;28;20460;-67
2022/02/14 11:11:08;;;;;;;3.78;1.20;;;11.60;95.10;;;;;;5084509;28;20537;-70
2022/02/14 11:13:35;;;;;;;1.10;0.93;;;11.60;95.10;;;;;;5091468;28;20043;-68
2022/02/14 11:16:03;;;;;;;3.53;1.00;;;11.60;95.00;;;;;;5095289;28;20056;-68
2022/02/14 11:18:37;;;;;;;1.35;1.20;;;11.60;95.00;;;;;;5095074;28;20028;-68
2022/02/14 11:21:03;;;;;;;2.92;1.30;;;11.60;95.00;;;;;;5094426;28;20040;-68
2022/02/14 11:23:33;;;;;;;1.85;1.17;;;11.60;94.90;;;;;;5081477;28;20044;-68
2022/02/14 11:26:40;;;;;;;1.15;0.88;;;11.60;94.90;;;;;;5094175;28;20569;-68
2022/02/14 11:29:32;;;;;;;6.32;1.60;;;11.60;94.90;;;;;;5080679;28;20051;-68
2022/02/14 11:32:18;;;;;;;1.30;1.10;;;11.60;94.90;;;;;;5093588;28;20028;-68
2022/02/14 11:35:01;;;;;;;3.03;1.45;;;11.60;94.90;;;;;;5093222;28;20406;-68
2022/02/14 11:37:48;;;;;;;3.13;1.00;;;11.50;94.80;;;;;;5091575;28;20134;-67
2022/02/14 11:40:29;;;;;;;7.82;1.73;;;11.50;94.80;;;;;;5093254;28;20051;-67
2022/02/14 11:43:08;;;;;;;5.28;2.05;;;11.50;94.80;;;;;;5090118;28;20044;-68
2022/02/14 11:45:34;;;;;;;2.85;1.40;;;11.50;94.80;;;;;;5089993;28;20417;-68
2022/02/14 11:48:23;;;;;;;6.55;2.00;;;11.50;94.90;;;;;;5093441;28;20050;-68
2022/02/14 11:50:49;;;;;;;2.28;1.45;;;11.50;94.90;;;;;;5092107;28;20074;-68
2022/02/14 11:53:45;;;;;;;4.00;1.92;;;11.50;95.00;;;;;;5093749;28;20024;-68
2022/02/14 11:56:22;;;;;;;3.20;1.80;;;11.60;95.00;;;;;;5090764;28;20028;-68
2022/02/14 11:59:00;;;;;;;3.80;1.65;;;11.50;94.90;;;;;;5092190;28;20031;-68
2022/02/14 12:01:27;;;;;;;3.20;2.22;;;11.60;94.90;;;;;;5090565;28;20118;-68
2022/02/14 12:03:57;;;;;;;1.80;1.35;;;11.50;94.90;;;;;;5093520;28;20062;-68
2022/02/14 12:06:23;;;;;;;3.05;1.60;;;11.60;94.90;;;;;;5089217;28;20113;-69
2022/02/14 12:09:10;;;;;;;6.13;1.80;;;11.60;94.80;;;;;;5094848;28;20494;-69
2022/02/14 12:11:47;;;;;;;5.95;1.60;;;11.60;94.80;;;;;;5091705;28;20036;-70
2022/02/14 12:14:17;;;;;;;3.38;1.40;;;11.60;94.70;;;;;;5092442;28;20046;-73
2022/02/14 12:22:44;;;;;;;4.05;2.33;;;11.70;94.40;;;;;;5093147;28;20047;-69
2022/02/14 12:25:10;;;;;;;6.50;2.35;;;11.60;94.50;;;;;;5092798;28;20039;-68
2022/02/14 12:27:36;;;;;;;3.75;2.00;;;11.60;94.50;;;;;;5093971;28;20099;-68
2022/02/14 12:30:22;;;;;;;5.70;2.00;;;11.60;94.50;;;;;;5091576;28;20035;-68
2022/02/14 12:32:57;;;;;;;6.95;2.15;;;11.60;94.40;;;;;;5093307;28;20028;-71
2022/02/14 12:35:33;;;;;;;3.30;1.83;;;11.50;94.40;;;;;;5090198;28;20446;-67
2022/02/14 12:37:59;;;;;;;2.28;1.55;;;11.50;94.50;;;;;;5092840;28;20411;-68
2022/02/14 12:40:25;;;;;;;3.50;1.98;;;11.50;94.50;;;;;;5093726;28;20046;-67
2022/02/14 12:43:00;;;;;;;4.35;1.85;;;11.50;94.50;;;;;;5092619;28;20485;-67
2022/02/14 12:45:28;;;;;;;3.35;1.65;;;11.50;94.60;;;;;;5091961;28;20035;-67
2022/02/14 12:47:55;;;;;;;2.78;1.65;;;11.50;94.50;;;;;;5091847;28;20070;-67
2022/02/14 12:50:21;;;;;;;5.50;2.17;;;11.50;94.40;;;;;;5089372;28;20024;-67
2022/02/14 12:52:47;;;;;;;6.57;1.73;;;11.50;94.40;;;;;;5092540;28;20024;-67
2022/02/14 12:55:15;;;;;;;5.80;1.58;;;11.60;94.50;;;;;;5092295;28;20542;-67